createdAt,value
2022-07-30T00:00:11.755Z,101131.66
2022-07-30T00:02:38.187Z,101135.78
2022-07-30T00:05:05.308Z,101127.84
2022-07-30T00:07:31.772Z,101127.72
2022-07-30T00:09:58.376Z,101126.63
2022-07-30T00:12:24.928Z,101126.28
2022-07-30T00:14:51.416Z,101130.41
2022-07-30T00:17:17.869Z,101129.22
2022-07-30T00:19:45.403Z,101128.75
2022-07-30T00:22:11.852Z,101130.28
2022-07-30T00:24:38.623Z,101130.59
2022-07-30T00:27:05.093Z,101129.75
2022-07-30T00:29:31.714Z,101130.09
2022-07-30T00:31:58.137Z,101131.75
2022-07-30T00:34:24.794Z,101130.59
2022-07-30T00:36:51.361Z,101128.16
2022-07-30T00:39:17.808Z,101117.00
2022-07-30T00:42:02.110Z,101123.78
2022-07-30T00:44:29.720Z,101116.22
2022-07-30T00:46:56.733Z,101108.72
2022-07-30T00:49:23.633Z,101119.00
2022-07-30T00:51:50.701Z,101121.84
2022-07-30T00:54:17.210Z,101119.63
2022-07-30T00:56:43.890Z,101124.91
2022-07-30T00:59:10.495Z,101111.28
2022-07-30T01:01:37.291Z,101111.88
2022-07-30T01:04:04.120Z,101120.25
2022-07-30T01:06:30.533Z,101110.41
2022-07-30T01:08:57.333Z,101118.44
2022-07-30T01:11:31.754Z,101112.25
2022-07-30T01:13:58.699Z,101111.16
2022-07-30T01:16:25.790Z,101113.91
2022-07-30T01:19:12.579Z,101109.00
2022-07-30T01:21:43.819Z,101113.53
2022-07-30T01:24:30.421Z,101116.00
2022-07-30T01:26:58.305Z,101118.22
2022-07-30T01:29:27.216Z,101118.38
2022-07-30T01:31:59.921Z,101115.88
2022-07-30T01:34:32.626Z,101115.06
2022-07-30T01:37:00.006Z,101117.34
2022-07-30T01:39:27.798Z,101113.53
2022-07-30T01:41:56.355Z,101115.69
2022-07-30T01:44:25.795Z,101105.47
2022-07-30T01:46:54.342Z,101114.00
2022-07-30T01:49:23.868Z,101107.59
2022-07-30T01:51:50.927Z,101109.41
2022-07-30T01:54:18.992Z,101112.25
2022-07-30T01:56:47.728Z,101105.00
2022-07-30T01:59:18.476Z,101107.44
2022-07-30T02:01:47.274Z,101107.22
2022-07-30T02:04:14.395Z,101111.91
2022-07-30T02:06:45.038Z,101114.28
2022-07-30T02:09:19.430Z,101117.81
2022-07-30T02:12:07.804Z,101120.16
2022-07-30T02:14:41.221Z,101121.84
2022-07-30T02:17:18.561Z,101121.84
2022-07-30T02:19:47.036Z,101114.91
2022-07-30T02:22:16.551Z,101115.16
2022-07-30T02:24:44.069Z,101115.88
2022-07-30T02:27:16.359Z,101107.91
2022-07-30T02:29:44.209Z,101103.38
2022-07-30T02:32:15.233Z,101112.13
2022-07-30T02:34:44.644Z,101103.50
2022-07-30T02:37:14.370Z,101106.47
2022-07-30T02:39:43.071Z,101112.03
2022-07-30T02:42:12.396Z,101106.47
2022-07-30T02:44:42.279Z,101105.94
2022-07-30T02:47:09.743Z,101110.94
2022-07-30T02:49:41.901Z,101115.13
2022-07-30T02:52:13.517Z,101113.53
2022-07-30T02:54:42.470Z,101109.47
2022-07-30T02:57:10.731Z,101111.72
2022-07-30T02:59:40.803Z,101118.44
2022-07-30T03:02:09.323Z,101120.31
2022-07-30T03:04:37.907Z,101125.78
2022-07-30T03:07:08.410Z,101128.56
2022-07-30T03:09:52.084Z,101132.31
2022-07-30T03:12:19.742Z,101125.38
2022-07-30T03:14:46.407Z,101129.41
2022-07-30T03:17:15.816Z,101139.25
2022-07-30T03:19:45.276Z,101147.91
2022-07-30T03:22:14.725Z,101138.16
2022-07-30T03:24:44.077Z,101131.28
2022-07-30T03:27:10.891Z,101133.28
2022-07-30T03:29:39.468Z,101145.06
2022-07-30T03:32:06.863Z,101150.19
2022-07-30T03:34:35.002Z,101147.84
2022-07-30T03:37:04.978Z,101144.31
2022-07-30T03:39:37.227Z,101143.59
2022-07-30T03:42:07.809Z,101144.44
2022-07-30T03:44:35.960Z,101148.78
2022-07-30T03:47:07.172Z,101141.28
2022-07-30T03:49:39.858Z,101146.16
2022-07-30T03:52:07.319Z,101142.16
2022-07-30T03:54:35.549Z,101140.41
2022-07-30T03:57:15.322Z,101144.13
2022-07-30T03:59:47.446Z,101144.13
2022-07-30T04:02:13.903Z,101143.47
2022-07-30T04:05:02.916Z,101151.41
2022-07-30T04:07:29.391Z,101146.75
2022-07-30T04:09:55.855Z,101148.41
2022-07-30T04:12:41.376Z,101154.09
2022-07-30T04:16:38.391Z,101157.28
2022-07-30T04:18:01.987Z,101160.28
2022-07-30T04:20:34.375Z,101158.78
2022-07-30T04:23:01.661Z,101155.94
2022-07-30T04:25:29.484Z,101150.25
2022-07-30T04:28:03.003Z,101160.06
2022-07-30T04:30:31.409Z,101161.06
2022-07-30T04:32:58.083Z,101169.41
2022-07-30T04:35:50.081Z,101172.44
2022-07-30T04:38:24.044Z,101169.91
2022-07-30T04:40:51.419Z,101178.25
2022-07-30T04:43:18.034Z,101179.09
2022-07-30T04:45:44.933Z,101175.41
2022-07-30T04:48:11.878Z,101172.44
2022-07-30T04:51:11.891Z,101172.75
2022-07-30T04:53:38.417Z,101170.28
2022-07-30T04:56:05.946Z,101167.94
2022-07-30T04:58:34.898Z,101165.09
2022-07-30T05:01:02.790Z,101173.63
2022-07-30T05:03:32.091Z,101168.59
2022-07-30T05:06:00.273Z,101170.28
2022-07-30T05:08:31.224Z,101174.13
2022-07-30T05:10:59.729Z,101178.81
2022-07-30T05:13:27.517Z,101179.31
2022-07-30T05:16:01.898Z,101172.09
2022-07-30T05:18:28.526Z,101172.09
2022-07-30T05:20:55.045Z,101170.56
2022-07-30T05:23:25.330Z,101170.41
2022-07-30T05:26:05.175Z,101171.06
2022-07-30T05:28:39.147Z,101167.53
2022-07-30T05:31:10.524Z,101172.91
2022-07-30T05:33:42.383Z,101170.56
2022-07-30T05:36:13.863Z,101163.38
2022-07-30T05:38:40.519Z,101169.19
2022-07-30T05:41:32.876Z,101166.16
2022-07-30T05:44:03.739Z,101164.16
2022-07-30T05:46:31.337Z,101162.50
2022-07-30T05:48:58.135Z,101164.84
2022-07-30T05:51:24.897Z,101165.16
2022-07-30T05:53:52.079Z,101164.16
2022-07-30T05:56:45.038Z,101163.50
2022-07-30T05:59:14.415Z,101161.81
2022-07-30T06:02:04.433Z,101173.00
2022-07-30T06:04:46.131Z,101169.66
2022-07-30T06:07:12.983Z,101180.66
2022-07-30T06:09:39.945Z,101178.25
2022-07-30T06:12:07.848Z,101184.56
2022-07-30T06:14:34.856Z,101182.34
2022-07-30T06:17:02.008Z,101170.34
2022-07-30T06:19:42.228Z,101176.16
2022-07-30T06:22:08.679Z,101169.94
2022-07-30T06:24:41.467Z,101174.75
2022-07-30T06:27:16.943Z,101181.25
2022-07-30T06:29:44.294Z,101186.38
2022-07-30T06:32:11.499Z,101185.38
2022-07-30T06:34:37.945Z,101191.06
2022-07-30T06:37:04.487Z,101187.16
2022-07-30T06:39:53.813Z,101189.59
2022-07-30T06:42:36.742Z,101189.56
2022-07-30T06:45:22.534Z,101190.88
2022-07-30T06:48:08.037Z,101199.28
2022-07-30T06:50:37.147Z,101189.47
2022-07-30T06:53:03.680Z,101191.63
2022-07-30T06:55:50.489Z,101199.25
2022-07-30T06:58:25.494Z,101187.13
2022-07-30T07:01:18.486Z,101195.94
2022-07-30T07:03:45.327Z,101198.06
2022-07-30T07:06:11.781Z,101205.25
2022-07-30T07:08:39.043Z,101198.56
2022-07-30T07:11:07.517Z,101204.66
2022-07-30T07:13:43.486Z,101207.28
2022-07-30T07:16:15.106Z,101198.88
2022-07-30T07:18:46.001Z,101200.56
2022-07-30T07:21:12.488Z,101202.69
2022-07-30T07:23:41.947Z,101195.94
2022-07-30T07:26:27.580Z,101204.22
2022-07-30T07:28:54.121Z,101204.03
2022-07-30T07:32:07.381Z,101207.81
2022-07-30T07:34:07.541Z,101208.53
2022-07-30T07:36:36.211Z,101209.69
2022-07-30T07:39:03.245Z,101204.91
2022-07-30T07:41:29.755Z,101211.94
2022-07-30T07:44:15.175Z,101214.88
2022-07-30T07:46:42.667Z,101211.28
2022-07-30T07:49:09.356Z,101214.88
2022-07-30T07:51:48.083Z,101207.38
2022-07-30T07:54:22.523Z,101206.72
2022-07-30T07:56:57.409Z,101215.28
2022-07-30T07:59:40.864Z,101210.31
2022-07-30T08:02:33.977Z,101209.84
2022-07-30T08:05:06.228Z,101208.00
2022-07-30T08:07:54.458Z,101207.88
2022-07-30T08:10:39.359Z,101215.66
2022-07-30T08:13:49.038Z,101209.31
2022-07-30T08:16:29.379Z,101216.31
2022-07-30T08:19:19.756Z,101219.06
2022-07-30T08:22:10.984Z,101217.28
2022-07-30T08:24:37.491Z,101207.63
2022-07-30T08:27:04.910Z,101202.94
2022-07-30T08:29:31.434Z,101205.88
2022-07-30T08:31:57.904Z,101195.44
2022-07-30T08:34:26.095Z,101205.59
2022-07-30T08:36:54.578Z,101200.44
2022-07-30T08:39:21.094Z,101202.47
2022-07-30T08:41:48.710Z,101207.91
2022-07-30T08:44:18.569Z,101206.16
2022-07-30T08:46:52.651Z,101205.41
2022-07-30T08:49:27.674Z,101200.75
2022-07-30T08:51:55.166Z,101200.84
2022-07-30T08:54:36.912Z,101206.19
2022-07-30T08:57:04.641Z,101201.41
2022-07-30T09:00:00.180Z,101207.34
2022-07-30T09:02:19.035Z,101197.75
2022-07-30T09:05:01.530Z,101193.25
2022-07-30T09:34:38.700Z,101199.53
2022-07-30T09:37:10.873Z,101197.41
2022-07-30T09:40:11.590Z,101201.72
2022-07-30T09:43:11.911Z,101191.97
2022-07-30T09:45:57.853Z,101196.00
2022-07-30T09:48:27.586Z,101192.16
2022-07-30T09:50:55.392Z,101201.59
2022-07-30T09:53:24.536Z,101198.31
2022-07-30T09:55:51.239Z,101202.84
2022-07-30T09:58:26.759Z,101198.75
2022-07-30T10:00:59.020Z,101196.09
2022-07-30T10:03:48.990Z,101192.59
2022-07-30T10:06:35.735Z,101193.19
2022-07-30T10:09:24.963Z,101194.53
2022-07-30T10:11:55.816Z,101193.84
2022-07-30T10:14:30.863Z,101192.88
2022-07-30T10:16:59.658Z,101195.44
2022-07-30T10:19:40.131Z,101197.16
2022-07-30T10:22:27.437Z,101192.78
2022-07-30T10:25:18.770Z,101195.81
2022-07-30T10:28:17.593Z,101199.94
2022-07-30T10:30:45.240Z,101201.00
2022-07-30T10:33:34.255Z,101198.16
2022-07-30T10:35:58.955Z,101186.66
2022-07-30T10:38:30.316Z,101191.97
2022-07-30T10:41:08.731Z,101189.13
2022-07-30T10:44:12.556Z,101188.84
2022-07-30T10:47:00.209Z,101195.00
2022-07-30T10:49:40.509Z,101186.88
2022-07-30T10:52:08.200Z,101179.78
2022-07-30T10:54:39.256Z,101185.16
2022-07-30T10:57:22.740Z,101183.59
2022-07-30T10:59:49.772Z,101177.72
2022-07-30T11:02:18.014Z,101176.53
2022-07-30T11:04:46.725Z,101174.75
2022-07-30T11:07:22.454Z,101179.88
2022-07-30T11:10:08.840Z,101172.09
2022-07-30T11:12:41.811Z,101177.75
2022-07-30T11:15:19.082Z,101165.09
2022-07-30T11:18:11.359Z,101174.44
2022-07-30T11:20:39.899Z,101171.16
2022-07-30T11:23:14.019Z,101174.50
2022-07-30T11:25:51.832Z,101166.78
2022-07-30T11:28:40.262Z,101178.91
2022-07-30T11:31:54.981Z,101170.31
2022-07-30T11:34:17.883Z,101180.47
2022-07-30T11:37:18.496Z,101169.53
2022-07-30T11:39:57.886Z,101176.78
2022-07-30T11:42:33.514Z,101172.09
2022-07-30T11:45:30.250Z,101163.66
2022-07-30T11:47:58.415Z,101165.03
2022-07-30T11:50:27.606Z,101166.19
2022-07-30T11:53:04.499Z,101171.03
2022-07-30T11:55:35.103Z,101172.59
2022-07-30T11:58:04.978Z,101176.59
2022-07-30T12:00:40.382Z,101173.34
2022-07-30T12:03:13.723Z,101179.53
2022-07-30T12:05:40.881Z,101162.13
2022-07-30T12:08:07.837Z,101162.41
2022-07-30T12:10:36.107Z,101164.47
2022-07-30T12:13:11.504Z,101165.00
2022-07-30T12:15:48.755Z,101178.50
2022-07-30T12:18:26.662Z,101171.66
2022-07-30T12:20:55.898Z,101168.25
2022-07-30T12:23:24.235Z,101168.84
2022-07-30T12:25:51.204Z,101164.38
2022-07-30T12:28:27.233Z,101175.72
2022-07-30T12:30:54.939Z,101176.16
2022-07-30T12:33:22.941Z,101171.50
2022-07-30T12:36:00.181Z,101169.97
2022-07-30T12:38:28.028Z,101171.16
2022-07-30T12:40:55.758Z,101173.88
2022-07-30T12:43:50.145Z,101170.41
2022-07-30T12:46:26.880Z,101165.81
2022-07-30T12:48:56.040Z,101157.03
2022-07-30T12:51:25.144Z,101162.81
2022-07-30T12:53:53.011Z,101155.13
2022-07-30T12:56:23.715Z,101166.66
2022-07-30T12:58:50.248Z,101155.25
2022-07-30T13:01:17.405Z,101157.03
2022-07-30T13:03:45.420Z,101159.16
2022-07-30T13:06:18.078Z,101159.06
2022-07-30T13:08:48.847Z,101161.09
2022-07-30T13:11:16.913Z,101165.91
2022-07-30T13:13:43.494Z,101153.75
2022-07-30T13:16:10.745Z,101161.47
2022-07-30T13:18:37.884Z,101152.88
2022-07-30T13:21:05.597Z,101150.34
2022-07-30T13:23:32.231Z,101151.34
2022-07-30T13:25:58.689Z,101155.19
2022-07-30T13:28:25.454Z,101151.75
2022-07-30T13:30:51.939Z,101161.00
2022-07-30T13:33:18.834Z,101150.41
2022-07-30T13:35:45.258Z,101145.28
2022-07-30T13:38:13.416Z,101149.34
2022-07-30T13:40:39.859Z,101148.13
2022-07-30T13:43:06.385Z,101136.09
2022-07-30T13:45:32.843Z,101132.63
2022-07-30T13:47:59.394Z,101128.16
2022-07-30T13:50:25.974Z,101133.94
2022-07-30T13:52:52.475Z,101121.41
2022-07-30T13:55:18.951Z,101131.69
2022-07-30T13:57:45.986Z,101131.47
2022-07-30T14:00:13.215Z,101142.31
2022-07-30T14:02:39.644Z,101137.81
2022-07-30T14:05:09.304Z,101140.19
2022-07-30T14:07:37.629Z,101141.88
2022-07-30T14:10:05.151Z,101144.22
2022-07-30T14:12:31.584Z,101142.00
2022-07-30T14:14:58.023Z,101138.31
2022-07-30T14:17:24.851Z,101133.56
2022-07-30T14:19:54.307Z,101130.00
2022-07-30T14:22:21.454Z,101117.81
2022-07-30T14:24:48.039Z,101120.53
2022-07-30T14:27:14.854Z,101118.47
2022-07-30T14:29:41.278Z,101127.03
2022-07-30T14:32:07.696Z,101129.56
2022-07-30T14:34:34.130Z,101122.75
2022-07-30T14:37:01.834Z,101125.31
2022-07-30T14:39:28.486Z,101121.88
2022-07-30T14:41:56.107Z,101127.13
2022-07-30T14:44:23.208Z,101128.06
2022-07-30T14:46:52.354Z,101130.13
2022-07-30T14:49:20.300Z,101122.31
2022-07-30T14:51:47.011Z,101136.00
2022-07-30T14:54:13.439Z,101126.13
2022-07-30T14:56:40.113Z,101131.31
2022-07-30T14:59:07.320Z,101138.16
2022-07-30T15:01:33.883Z,101134.84
2022-07-30T15:04:00.333Z,101126.22
2022-07-30T15:06:27.470Z,101135.34
2022-07-30T15:08:53.940Z,101130.81
2022-07-30T15:11:20.684Z,101129.81
2022-07-30T15:13:50.427Z,101134.88
2022-07-30T15:16:17.676Z,101132.03
2022-07-30T15:18:44.324Z,101134.34
2022-07-30T15:21:12.415Z,101122.59
2022-07-30T15:23:38.853Z,101119.03
2022-07-30T15:26:05.303Z,101132.06
2022-07-30T15:28:31.747Z,101123.81
2022-07-30T15:30:58.276Z,101127.03
2022-07-30T15:33:25.607Z,101130.00
2022-07-30T15:35:52.106Z,101130.41
2022-07-30T15:38:18.564Z,101122.41
2022-07-30T15:40:45.042Z,101122.28
2022-07-30T15:43:11.475Z,101117.88
2022-07-30T15:45:55.304Z,101115.34
2022-07-30T15:48:26.818Z,101118.69
2022-07-30T15:51:01.614Z,101129.84
2022-07-30T15:53:28.675Z,101130.50
2022-07-30T15:55:55.334Z,101127.13
2022-07-30T15:58:21.754Z,101123.13
2022-07-30T16:00:48.413Z,101125.28
2022-07-30T16:03:14.892Z,101121.44
2022-07-30T16:05:51.259Z,101121.44
2022-07-30T16:08:20.521Z,101119.84
2022-07-30T16:10:47.709Z,101128.09
2022-07-30T16:13:14.193Z,101121.44
2022-07-30T16:15:40.651Z,101124.81
2022-07-30T16:18:08.217Z,101122.19
2022-07-30T16:20:34.963Z,101118.22
2022-07-30T16:23:01.385Z,101126.47
2022-07-30T16:25:27.863Z,101121.44
2022-07-30T16:27:54.351Z,101126.72
2022-07-30T16:30:20.901Z,101126.56
2022-07-30T16:32:47.382Z,101124.91
2022-07-30T16:35:13.797Z,101131.00
2022-07-30T16:37:40.285Z,101131.31
2022-07-30T16:40:07.172Z,101139.56
2022-07-30T16:42:33.627Z,101137.13
2022-07-30T16:45:00.048Z,101141.03
2022-07-30T16:47:26.487Z,101137.09
2022-07-30T16:49:53.027Z,101138.66
2022-07-30T16:52:19.713Z,101141.91
2022-07-30T16:54:46.144Z,101143.47
2022-07-30T16:57:12.762Z,101150.44
2022-07-30T16:59:43.649Z,101140.22
2022-07-30T17:02:10.500Z,101138.59
2022-07-30T17:04:36.927Z,101136.81
2022-07-30T17:07:03.368Z,101141.91
2022-07-30T17:09:36.295Z,101142.00
2022-07-30T17:12:06.171Z,101137.03
2022-07-30T17:14:40.028Z,101149.41
2022-07-30T17:17:09.621Z,101147.91
2022-07-30T17:19:38.925Z,101149.38
2022-07-30T17:22:06.371Z,101145.63
2022-07-30T17:24:32.929Z,101152.47
2022-07-30T17:26:59.371Z,101152.25
2022-07-30T17:29:25.796Z,101151.09
2022-07-30T17:31:52.268Z,101158.75
2022-07-30T17:34:22.007Z,101160.25
2022-07-30T17:36:51.872Z,101162.22
2022-07-30T17:40:19.919Z,101158.94
2022-07-30T17:42:08.509Z,101163.66
2022-07-30T17:44:35.437Z,101162.13
2022-07-30T17:47:02.051Z,101165.94
2022-07-30T17:49:29.631Z,101168.63
2022-07-30T17:51:56.201Z,101160.59
2022-07-30T17:54:23.004Z,101173.34
2022-07-30T17:56:49.446Z,101167.47
2022-07-30T17:59:15.906Z,101169.69
2022-07-30T18:01:42.336Z,101171.75
2022-07-30T18:04:08.769Z,101170.56
2022-07-30T18:06:35.914Z,101182.06
2022-07-30T18:09:04.685Z,101179.66
2022-07-30T18:11:31.210Z,101171.50
2022-07-30T18:13:57.766Z,101176.78
2022-07-30T18:16:24.896Z,101171.75
2022-07-30T18:18:51.337Z,101172.94
2022-07-30T18:21:17.939Z,101172.13
2022-07-30T18:23:44.392Z,101178.41
2022-07-30T18:26:10.920Z,101178.34
2022-07-30T18:28:37.746Z,101182.81
2022-07-30T18:31:04.206Z,101176.59
2022-07-30T18:33:30.642Z,101180.69
2022-07-30T18:35:57.081Z,101183.88
2022-07-30T18:38:23.523Z,101182.94
2022-07-30T18:40:57.676Z,101189.00
2022-07-30T18:43:28.599Z,101184.22
2022-07-30T18:45:55.431Z,101194.31
2022-07-30T18:48:22.352Z,101196.28
2022-07-30T18:50:48.840Z,101202.53
2022-07-30T18:53:16.027Z,101200.50
2022-07-30T18:55:42.658Z,101204.72
2022-07-30T18:58:09.109Z,101209.84
2022-07-30T19:00:35.902Z,101204.41
2022-07-30T19:03:02.847Z,101211.03
2022-07-30T19:05:29.776Z,101214.53
2022-07-30T19:07:58.564Z,101210.56
2022-07-30T19:10:26.319Z,101216.91
2022-07-30T19:12:53.727Z,101220.88
2022-07-30T19:15:20.579Z,101223.22
2022-07-30T19:17:48.794Z,101235.41
2022-07-30T19:20:15.501Z,101230.22
2022-07-30T19:22:41.942Z,101233.75
2022-07-30T19:25:08.876Z,101231.16
2022-07-30T19:27:35.302Z,101236.69
2022-07-30T19:30:01.920Z,101234.78
2022-07-30T19:32:30.223Z,101238.91
2022-07-30T19:34:56.652Z,101247.75
2022-07-30T19:37:23.923Z,101249.66
2022-07-30T19:40:05.378Z,101253.78
2022-07-30T19:42:33.784Z,101249.06
2022-07-30T19:45:01.261Z,101245.38
2022-07-30T19:47:39.483Z,101253.31
2022-07-30T19:50:07.043Z,101242.41
2022-07-30T19:52:33.580Z,101241.69
2022-07-30T19:55:01.643Z,101235.41
2022-07-30T19:57:52.938Z,101243.38
2022-07-30T20:00:24.808Z,101246.44
2022-07-30T20:02:52.573Z,101243.59
2022-07-30T20:05:19.575Z,101240.81
2022-07-30T20:07:47.074Z,101247.16
2022-07-30T20:10:15.719Z,101250.59
2022-07-30T20:12:42.498Z,101243.09
2022-07-30T20:15:15.801Z,101249.53
2022-07-30T20:17:42.330Z,101242.66
2022-07-30T20:20:10.196Z,101243.97
2022-07-30T20:22:36.639Z,101247.97
2022-07-30T20:25:06.201Z,101253.56
2022-07-30T20:27:37.125Z,101253.41
2022-07-30T20:30:06.270Z,101243.19
2022-07-30T20:32:33.735Z,101245.44
2022-07-30T20:35:00.274Z,101251.34
2022-07-30T20:37:27.394Z,101247.19
2022-07-30T20:40:13.342Z,101253.31
2022-07-30T20:42:42.654Z,101243.47
2022-07-30T20:45:09.972Z,101250.53
2022-07-30T20:50:30.871Z,101248.91
2022-07-30T20:52:58.256Z,101246.63
2022-07-30T20:55:24.670Z,101238.84
2022-07-30T20:58:01.132Z,101239.28
2022-07-30T21:00:38.054Z,101240.66
2022-07-30T21:03:05.454Z,101234.63
2022-07-30T21:05:31.999Z,101225.16
2022-07-30T21:07:58.569Z,101227.25
2022-07-30T21:10:25.391Z,101234.50
2022-07-30T21:12:53.329Z,101233.69
2022-07-30T21:15:24.990Z,101235.09
2022-07-30T21:17:52.837Z,101232.66
2022-07-30T21:20:27.818Z,101226.34
2022-07-30T21:22:55.861Z,101225.34
2022-07-30T21:25:23.553Z,101229.19
2022-07-30T21:27:59.969Z,101225.72
2022-07-30T21:30:26.571Z,101225.91
2022-07-30T21:32:53.229Z,101232.81
2022-07-30T21:35:19.791Z,101229.19
2022-07-30T21:37:46.220Z,101226.81
2022-07-30T21:40:13.786Z,101231.69
2022-07-30T21:42:48.546Z,101233.19
2022-07-30T21:45:15.495Z,101237.53
2022-07-30T21:47:47.609Z,101236.91
2022-07-30T21:50:28.577Z,101247.78
2022-07-30T21:52:55.691Z,101241.81
2022-07-30T21:55:22.155Z,101240.09
2022-07-30T21:57:48.796Z,101241.44
2022-07-30T22:00:21.953Z,101245.66
2022-07-30T22:02:53.207Z,101245.97
2022-07-30T22:05:21.676Z,101247.81
2022-07-30T22:07:50.057Z,101242.66
2022-07-30T22:10:21.292Z,101247.38
2022-07-30T22:12:48.521Z,101249.38
2022-07-30T22:15:15.166Z,101245.69
2022-07-30T22:17:58.178Z,101243.84
2022-07-30T22:20:28.498Z,101243.50
2022-07-30T22:22:56.378Z,101241.69
2022-07-30T22:25:23.250Z,101241.69
2022-07-30T22:28:06.343Z,101241.50
2022-07-30T22:30:34.236Z,101240.00
2022-07-30T22:33:26.945Z,101240.00
2022-07-30T22:35:58.880Z,101240.69
2022-07-30T22:38:27.100Z,101237.69
2022-07-30T22:40:53.532Z,101237.81
2022-07-30T22:43:19.996Z,101236.13
2022-07-30T22:45:49.975Z,101235.81
2022-07-30T22:48:16.942Z,101226.25
2022-07-30T22:50:43.372Z,101225.06
2022-07-30T22:53:23.432Z,101222.91
2022-07-30T22:55:56.534Z,101226.38
2022-07-30T22:58:26.376Z,101227.22
2022-07-30T23:00:53.184Z,101228.53
2022-07-30T23:03:19.723Z,101218.97
2022-07-30T23:05:55.079Z,101224.78
2022-07-30T23:08:29.826Z,101224.78
2022-07-30T23:10:56.998Z,101216.28
2022-07-30T23:12:19.168Z,101240.88
2022-07-30T23:13:23.435Z,101216.28
2022-07-30T23:15:49.959Z,101219.41
2022-07-30T23:18:16.388Z,101214.34
2022-07-30T23:20:42.939Z,101219.53
2022-07-30T23:23:11.406Z,101225.66
2022-07-30T23:25:38.998Z,101220.84
2022-07-30T23:28:05.613Z,101222.66
2022-07-30T23:30:34.123Z,101224.94
2022-07-30T23:33:00.822Z,101222.59
2022-07-30T23:35:27.260Z,101221.91
2022-07-30T23:37:53.685Z,101222.91
2022-07-30T23:40:20.186Z,101224.59
2022-07-30T23:42:47.651Z,101218.38
2022-07-30T23:45:14.384Z,101218.94
2022-07-30T23:47:56.536Z,101219.41
2022-07-30T23:50:27.601Z,101223.19
2022-07-30T23:52:54.072Z,101223.53
2022-07-30T23:55:21.161Z,101225.72
2022-07-30T23:57:47.605Z,101221.38
